Time;durP1;ratioP1;P1;durP2;ratioP2;P2;SDS_P1;SDS_P2;PMS_P1;PMS_P2;Temp;Humidity;BMP_temperature;BMP_pressure;BME280_temperature;BME280_humidity;BME280_pressure;Samples;Min_cycle;Max_cycle;Signal;HPM_P1;HPM_P2
2024/03/18 00:00:17;;;;;;;;;;;10.20;85.20;;;;;;4981106;28;81894;-50
2024/03/18 00:02:47;;;;;;;;;;;10.10;85.20;;;;;;4977317;28;82737;-51
2024/03/18 00:05:16;;;;;;;;;;;10.20;85.10;;;;;;4985939;28;84130;-50
2024/03/18 00:07:42;;;;;;;;;;;10.10;85.10;;;;;;4981491;28;81975;-50
2024/03/18 00:10:09;;;;;;;;;;;10.10;85.10;;;;;;4980902;28;81985;-53
2024/03/18 00:12:38;;;;;;;;;;;10.10;85.00;;;;;;4976089;28;82947;-51
2024/03/18 00:15:04;;;;;;;;;;;10.10;85.00;;;;;;4984749;28;82180;-47
2024/03/18 00:17:29;;;;;;;;;;;10.10;85.00;;;;;;4980835;28;82529;-51
2024/03/18 00:19:55;;;;;;;;;;;10.10;85.00;;;;;;4980925;28;81272;-50
2024/03/18 00:22:21;;;;;;;;;;;10.10;85.00;;;;;;4975993;28;82289;-53
2024/03/18 00:24:46;;;;;;;;;;;10.10;85.00;;;;;;4979509;28;82834;-50
2024/03/18 00:27:13;;;;;;;;;;;10.10;85.00;;;;;;4978403;28;83030;-50
2024/03/18 00:29:39;;;;;;;;;;;10.10;85.00;;;;;;4978551;28;82715;-52
2024/03/18 00:32:04;;;;;;;;;;;10.00;84.90;;;;;;4981966;28;82448;-50
2024/03/18 00:34:30;;;;;;;;;;;10.00;84.90;;;;;;4980322;28;82750;-53
2024/03/18 00:36:56;;;;;;;;;;;10.00;85.00;;;;;;4977734;28;82336;-51
2024/03/18 00:39:21;;;;;;;;;;;10.00;84.90;;;;;;4976890;28;82267;-50
2024/03/18 00:41:48;;;;;;;;;;;10.00;85.00;;;;;;4977689;28;82927;-49
2024/03/18 00:44:15;;;;;;;;;;;10.00;84.90;;;;;;4978485;28;83692;-52
2024/03/18 00:46:44;;;;;;;;;;;10.00;84.90;;;;;;4980078;28;82620;-51
2024/03/18 00:49:09;;;;;;;;;;;10.00;84.80;;;;;;4976786;28;82067;-50
2024/03/18 00:51:36;;;;;;;;;;;10.00;84.90;;;;;;4981416;28;84525;-50
2024/03/18 00:54:02;;;;;;;;;;;10.00;85.00;;;;;;4979713;28;81858;-50
2024/03/18 00:56:27;;;;;;;;;;;9.90;84.80;;;;;;4981491;28;82229;-50
2024/03/18 00:58:54;;;;;;;;;;;9.90;84.80;;;;;;4979565;28;83849;-50
2024/03/18 01:01:20;;;;;;;;;;;9.90;84.80;;;;;;4982012;28;81992;-50
2024/03/18 01:03:46;;;;;;;;;;;9.90;84.70;;;;;;4977421;28;82602;-48
2024/03/18 01:06:11;;;;;;;;;;;9.90;84.80;;;;;;4981331;28;81973;-51
2024/03/18 01:08:37;;;;;;;;;;;9.90;84.80;;;;;;4976457;28;82841;-48
2024/03/18 01:11:02;;;;;;;;;;;9.90;84.80;;;;;;4982500;28;82596;-48
2024/03/18 01:13:32;;;;;;;;;;;9.80;84.80;;;;;;4983381;28;82081;-53
2024/03/18 01:15:58;;;;;;;;;;;9.90;84.70;;;;;;4976950;28;82852;-53
2024/03/18 01:18:24;;;;;;;;;;;9.80;84.70;;;;;;4980988;28;83568;-49
2024/03/18 01:20:50;;;;;;;;;;;9.80;84.80;;;;;;4977992;28;82004;-50
2024/03/18 01:23:15;;;;;;;;;;;9.80;84.80;;;;;;4975562;28;82613;-49
2024/03/18 01:25:41;;;;;;;;;;;9.80;84.80;;;;;;4976422;28;82873;-49
2024/03/18 01:28:08;;;;;;;;;;;9.80;84.70;;;;;;4980064;28;82040;-51
2024/03/18 01:30:33;;;;;;;;;;;9.80;84.90;;;;;;4980747;28;82784;-50
2024/03/18 01:32:59;;;;;;;;;;;9.80;84.80;;;;;;4979113;28;81222;-50
2024/03/18 01:35:25;;;;;;;;;;;9.80;84.80;;;;;;4977262;28;81962;-50
2024/03/18 01:37:50;;;;;;;;;;;9.80;84.60;;;;;;4976431;28;82884;-50
2024/03/18 01:40:17;;;;;;;;;;;9.70;84.80;;;;;;4981233;28;83050;-50
2024/03/18 01:42:44;;;;;;;;;;;9.70;84.80;;;;;;4982878;28;82761;-53
2024/03/18 01:45:10;;;;;;;;;;;9.70;84.80;;;;;;4982389;28;82029;-50
2024/03/18 01:47:37;;;;;;;;;;;9.70;84.70;;;;;;4976554;28;83133;-50
2024/03/18 01:50:03;;;;;;;;;;;9.70;84.70;;;;;;4979713;28;81932;-50
2024/03/18 01:52:29;;;;;;;;;;;9.70;84.70;;;;;;4973835;28;82046;-50
2024/03/18 01:54:56;;;;;;;;;;;9.70;84.80;;;;;;4977301;28;82713;-49
2024/03/18 01:57:24;;;;;;;;;;;9.70;84.70;;;;;;4980412;28;81624;-49
2024/03/18 01:59:49;;;;;;;;;;;9.70;84.80;;;;;;4979574;28;81931;-50
2024/03/18 02:02:15;;;;;;;;;;;9.70;84.90;;;;;;4977384;28;81915;-50
2024/03/18 02:04:40;;;;;;;;;;;9.60;84.80;;;;;;4974422;28;82995;-49
2024/03/18 02:07:24;;;;;;;;;;;9.60;84.90;;;;;;4977655;28;83310;-50
2024/03/18 02:09:49;;;;;;;;;;;9.60;84.90;;;;;;4975238;28;82626;-51
2024/03/18 02:12:15;;;;;;;;;;;9.60;84.90;;;;;;4979874;28;81933;-51
2024/03/18 02:14:44;;;;;;;;;;;9.60;84.90;;;;;;4974252;28;82313;-51
2024/03/18 02:17:09;;;;;;;;;;;9.60;84.90;;;;;;4979835;28;83736;-49
2024/03/18 02:19:35;;;;;;;;;;;9.60;84.90;;;;;;4981837;28;81996;-49
2024/03/18 02:22:05;;;;;;;;;;;9.60;84.80;;;;;;4978891;28;83070;-49
2024/03/18 02:24:31;;;;;;;;;;;9.50;84.80;;;;;;4985596;28;82445;-50
2024/03/18 02:27:03;;;;;;;;;;;9.50;84.90;;;;;;4978351;28;82835;-51
2024/03/18 02:29:29;;;;;;;;;;;9.50;84.90;;;;;;4977597;28;84863;-51
2024/03/18 02:31:55;;;;;;;;;;;9.50;84.90;;;;;;4977500;28;82018;-50
2024/03/18 02:34:20;;;;;;;;;;;9.50;84.80;;;;;;4976427;28;82006;-49
2024/03/18 02:36:46;;;;;;;;;;;9.50;84.90;;;;;;4974542;28;82569;-48
2024/03/18 02:39:11;;;;;;;;;;;9.50;84.90;;;;;;4980684;28;81992;-51
2024/03/18 02:41:37;;;;;;;;;;;9.40;84.90;;;;;;4976271;28;82026;-49
2024/03/18 02:44:02;;;;;;;;;;;9.40;85.00;;;;;;4977196;28;83101;-50
2024/03/18 02:46:28;;;;;;;;;;;9.40;85.00;;;;;;4982390;28;81215;-49
2024/03/18 02:48:53;;;;;;;;;;;9.40;85.00;;;;;;4977846;28;81871;-50
2024/03/18 02:51:19;;;;;;;;;;;9.40;85.00;;;;;;4975761;28;82090;-49
2024/03/18 02:53:45;;;;;;;;;;;9.40;85.10;;;;;;4975900;28;82936;-52
2024/03/18 02:56:10;;;;;;;;;;;9.30;85.00;;;;;;4978228;28;82358;-51
2024/03/18 02:58:36;;;;;;;;;;;9.40;85.00;;;;;;4974113;28;82541;-48
2024/03/18 03:01:01;;;;;;;;;;;9.30;85.00;;;;;;4977089;28;82516;-49
2024/03/18 03:03:27;;;;;;;;;;;9.30;85.00;;;;;;4975683;28;82331;-50
2024/03/18 03:05:52;;;;;;;;;;;9.30;85.10;;;;;;4976654;28;81967;-51
2024/03/18 03:08:20;;;;;;;;;;;9.30;85.10;;;;;;4975286;28;82080;-49
2024/03/18 03:10:46;;;;;;;;;;;9.30;85.10;;;;;;4977330;28;81296;-50
2024/03/18 03:13:11;;;;;;;;;;;9.30;85.10;;;;;;4976990;28;82142;-50
2024/03/18 03:15:37;;;;;;;;;;;9.30;84.90;;;;;;4978186;28;83161;-50
2024/03/18 03:18:03;;;;;;;;;;;9.30;84.90;;;;;;4976921;28;82880;-51
2024/03/18 03:20:31;;;;;;;;;;;9.30;85.60;;;;;;4973741;28;83361;-49
2024/03/18 03:22:58;;;;;;;;;;;9.30;85.00;;;;;;4976623;28;82312;-50
2024/03/18 03:25:24;;;;;;;;;;;9.30;84.90;;;;;;4979316;28;81934;-51
2024/03/18 03:27:50;;;;;;;;;;;9.30;85.00;;;;;;4984164;28;81947;-52
2024/03/18 03:30:15;;;;;;;;;;;9.20;85.00;;;;;;4989149;28;81940;-50
2024/03/18 03:32:41;;;;;;;;;;;9.20;85.10;;;;;;4982901;28;82001;-50
2024/03/18 03:35:06;;;;;;;;;;;9.20;85.00;;;;;;4980986;28;81166;-50
2024/03/18 03:37:32;;;;;;;;;;;9.20;85.00;;;;;;4979832;28;81953;-50
2024/03/18 03:39:58;;;;;;;;;;;9.20;85.00;;;;;;4980178;28;81931;-52
2024/03/18 03:42:24;;;;;;;;;;;9.20;85.00;;;;;;4971945;28;82849;-49
2024/03/18 03:44:49;;;;;;;;;;;9.10;85.00;;;;;;4982056;28;82056;-48
2024/03/18 03:47:15;;;;;;;;;;;9.10;85.00;;;;;;4980135;28;82905;-50
2024/03/18 03:49:41;;;;;;;;;;;9.20;85.00;;;;;;4978155;28;83388;-50
2024/03/18 03:52:06;;;;;;;;;;;9.10;85.00;;;;;;4984239;28;82778;-52
2024/03/18 03:54:32;;;;;;;;;;;9.10;84.90;;;;;;4979944;28;83328;-50
2024/03/18 03:56:57;;;;;;;;;;;9.10;84.80;;;;;;4979184;28;81939;-51
2024/03/18 03:59:23;;;;;;;;;;;9.10;85.00;;;;;;4984545;28;81586;-49
2024/03/18 04:01:48;;;;;;;;;;;9.10;84.90;;;;;;4980986;28;82614;-49
2024/03/18 04:04:14;;;;;;;;;;;9.10;85.40;;;;;;4982306;28;81921;-51
2024/03/18 04:06:40;;;;;;;;;;;9.10;85.00;;;;;;4978478;28;83103;-51
2024/03/18 04:09:06;;;;;;;;;;;9.10;85.10;;;;;;4978463;28;82579;-52
2024/03/18 04:11:31;;;;;;;;;;;9.00;85.00;;;;;;4980885;28;82020;-51
2024/03/18 04:13:57;;;;;;;;;;;9.00;84.90;;;;;;4979422;28;82513;-52
2024/03/18 04:16:23;;;;;;;;;;;9.00;85.00;;;;;;4980347;28;81832;-50
2024/03/18 04:18:48;;;;;;;;;;;9.00;84.90;;;;;;4979557;28;82017;-49
2024/03/18 04:21:14;;;;;;;;;;;9.00;85.00;;;;;;4984835;28;82385;-52
2024/03/18 04:23:39;;;;;;;;;;;9.00;85.00;;;;;;4981317;28;81155;-51
2024/03/18 04:26:08;;;;;;;;;;;8.90;85.00;;;;;;4976090;28;82105;-49
2024/03/18 04:28:34;;;;;;;;;;;8.90;85.00;;;;;;4982246;28;82362;-48
2024/03/18 04:31:04;;;;;;;;;;;8.90;85.00;;;;;;4978131;28;82833;-50
2024/03/18 04:33:30;;;;;;;;;;;8.90;84.90;;;;;;4988388;28;82628;-50
2024/03/18 04:35:55;;;;;;;;;;;8.90;84.90;;;;;;4979777;28;82023;-51
2024/03/18 04:38:21;;;;;;;;;;;8.90;84.90;;;;;;4978583;28;82006;-50
2024/03/18 04:40:47;;;;;;;;;;;8.90;85.00;;;;;;4978000;28;81851;-49
2024/03/18 04:43:13;;;;;;;;;;;8.80;85.10;;;;;;4983891;28;82033;-50
2024/03/18 04:45:39;;;;;;;;;;;8.80;85.00;;;;;;4979028;28;81949;-50
2024/03/18 04:48:05;;;;;;;;;;;8.90;85.10;;;;;;4982194;28;82353;-49
2024/03/18 04:50:31;;;;;;;;;;;8.90;85.10;;;;;;4984084;28;82033;-50
2024/03/18 04:52:56;;;;;;;;;;;8.80;85.10;;;;;;4979993;28;82006;-50
2024/03/18 04:55:22;;;;;;;;;;;8.80;84.90;;;;;;4983723;28;83331;-49
2024/03/18 04:57:50;;;;;;;;;;;8.80;84.90;;;;;;4981297;28;81931;-50
2024/03/18 05:00:16;;;;;;;;;;;8.80;85.00;;;;;;4977930;28;82570;-50
2024/03/18 05:02:42;;;;;;;;;;;8.80;85.00;;;;;;4981023;28;82337;-49
2024/03/18 05:05:09;;;;;;;;;;;8.80;85.00;;;;;;4981264;28;81920;-51
2024/03/18 05:07:34;;;;;;;;;;;8.80;85.00;;;;;;4979413;28;81945;-48
2024/03/18 05:10:00;;;;;;;;;;;8.80;85.00;;;;;;4980720;28;82374;-50
2024/03/18 05:12:26;;;;;;;;;;;8.70;84.90;;;;;;4983575;28;82292;-50
2024/03/18 05:14:51;;;;;;;;;;;8.70;84.90;;;;;;4976155;28;82483;-50
2024/03/18 05:17:17;;;;;;;;;;;8.70;85.00;;;;;;4984671;28;82421;-49
2024/03/18 05:19:43;;;;;;;;;;;8.70;84.90;;;;;;4978240;28;83569;-49
2024/03/18 05:22:10;;;;;;;;;;;8.70;84.90;;;;;;4980999;28;81959;-50
2024/03/18 05:24:37;;;;;;;;;;;8.70;84.80;;;;;;4979573;28;82460;-49
2024/03/18 05:27:02;;;;;;;;;;;8.70;84.80;;;;;;4980182;28;82643;-51
2024/03/18 05:29:28;;;;;;;;;;;8.70;85.00;;;;;;4980810;28;82036;-49
2024/03/18 05:31:54;;;;;;;;;;;8.70;84.90;;;;;;4977446;28;82348;-50
2024/03/18 05:34:19;;;;;;;;;;;8.70;84.80;;;;;;4978571;28;82814;-50
2024/03/18 05:36:45;;;;;;;;;;;8.70;84.80;;;;;;4979445;28;81217;-50
2024/03/18 05:39:11;;;;;;;;;;;8.70;84.80;;;;;;4983827;28;81992;-50
2024/03/18 05:41:36;;;;;;;;;;;8.70;84.90;;;;;;4979969;28;82599;-50
2024/03/18 05:44:02;;;;;;;;;;;8.60;84.70;;;;;;4980357;28;84518;-51
2024/03/18 05:46:28;;;;;;;;;;;8.70;84.80;;;;;;4978370;28;82753;-49
2024/03/18 05:48:53;;;;;;;;;;;8.60;84.70;;;;;;4980225;28;81942;-49
2024/03/18 05:51:19;;;;;;;;;;;8.60;84.70;;;;;;4980702;28;81984;-52
2024/03/18 05:53:45;;;;;;;;;;;8.70;85.30;;;;;;4979031;28;83438;-50
2024/03/18 05:56:11;;;;;;;;;;;8.60;84.60;;;;;;4974527;28;82898;-50
2024/03/18 05:58:39;;;;;;;;;;;8.60;84.60;;;;;;4978141;28;82065;-50
2024/03/18 06:01:10;;;;;;;;;;;8.60;84.80;;;;;;4978942;28;81632;-50
2024/03/18 06:03:42;;;;;;;;;;;8.60;85.30;;;;;;4977928;28;82660;-50
2024/03/18 06:06:08;;;;;;;;;;;8.60;84.70;;;;;;4979998;28;82442;-49
2024/03/18 06:08:34;;;;;;;;;;;8.60;84.70;;;;;;4975602;28;82798;-50
2024/03/18 06:11:00;;;;;;;;;;;8.60;84.80;;;;;;4971980;28;81884;-50
2024/03/18 06:13:26;;;;;;;;;;;8.60;84.70;;;;;;4972591;28;82474;-50
2024/03/18 06:15:52;;;;;;;;;;;8.60;84.50;;;;;;4976920;28;82473;-49
2024/03/18 06:18:18;;;;;;;;;;;8.60;84.60;;;;;;4979667;28;81796;-49
2024/03/18 06:20:44;;;;;;;;;;;8.60;84.60;;;;;;4980672;28;83467;-49
2024/03/18 06:23:10;;;;;;;;;;;8.60;84.40;;;;;;4976153;28;82351;-49
2024/03/18 06:28:19;;;;;;;;;;;8.60;84.50;;;;;;4975573;28;82070;-49
2024/03/18 06:30:47;;;;;;;;;;;8.60;84.50;;;;;;4972494;28;81978;-49
2024/03/18 06:33:13;;;;;;;;;;;8.60;84.50;;;;;;4974828;28;83347;-51
2024/03/18 06:35:39;;;;;;;;;;;8.60;84.60;;;;;;4979428;28;82007;-50
2024/03/18 06:38:05;;;;;;;;;;;8.60;84.50;;;;;;4979168;28;83181;-50
2024/03/18 06:40:30;;;;;;;;;;;8.60;84.60;;;;;;4977200;28;82483;-50
2024/03/18 06:42:56;;;;;;;;;;;8.60;84.60;;;;;;4980792;28;81950;-51
2024/03/18 06:45:22;;;;;;;;;;;8.50;84.60;;;;;;4973382;28;83780;-48
2024/03/18 06:47:47;;;;;;;;;;;8.60;84.60;;;;;;4979614;28;81929;-49
2024/03/18 06:50:13;;;;;;;;;;;8.60;84.70;;;;;;4976706;28;82239;-50
2024/03/18 06:52:39;;;;;;;;;;;8.50;84.70;;;;;;4973409;28;82762;-50
2024/03/18 06:55:04;;;;;;;;;;;8.60;84.70;;;;;;4977470;28;82016;-51
2024/03/18 06:57:30;;;;;;;;;;;8.60;84.60;;;;;;4980809;28;83035;-50
2024/03/18 06:59:58;;;;;;;;;;;8.60;84.60;;;;;;4981043;28;82561;-50
2024/03/18 07:02:24;;;;;;;;;;;8.60;84.70;;;;;;4979541;28;82658;-49
2024/03/18 07:04:50;;;;;;;;;;;8.60;84.70;;;;;;4979625;28;82172;-50
2024/03/18 07:07:15;;;;;;;;;;;8.60;84.80;;;;;;4976583;28;81950;-49
2024/03/18 07:09:41;;;;;;;;;;;8.60;84.80;;;;;;4984716;28;81958;-49
2024/03/18 07:12:07;;;;;;;;;;;8.60;84.70;;;;;;4975733;28;87725;-49
2024/03/18 07:14:32;;;;;;;;;;;8.60;84.70;;;;;;4975243;28;86285;-50
2024/03/18 07:16:58;;;;;;;;;;;8.60;84.80;;;;;;4975647;28;87204;-50
2024/03/18 07:19:23;;;;;;;;;;;8.60;84.70;;;;;;4980353;28;87376;-50
2024/03/18 07:21:49;;;;;;;;;;;8.60;84.80;;;;;;4976305;28;88056;-49
2024/03/18 07:24:15;;;;;;;;;;;8.60;84.80;;;;;;4976877;28;87840;-50
2024/03/18 07:26:41;;;;;;;;;;;8.50;84.90;;;;;;4979989;28;88475;-51
2024/03/18 07:29:07;;;;;;;;;;;8.60;85.00;;;;;;4978441;28;87980;-49
2024/03/18 07:31:33;;;;;;;;;;;8.60;85.00;;;;;;4971781;28;88614;-50
2024/03/18 07:33:59;;;;;;;;;;;8.60;85.00;;;;;;4975539;28;87095;-50
2024/03/18 07:36:25;;;;;;;;;;;8.60;85.00;;;;;;4976738;28;87011;-49
2024/03/18 07:38:50;;;;;;;;;;;8.60;85.00;;;;;;4977656;28;88097;-51
2024/03/18 07:41:16;;;;;;;;;;;8.60;85.00;;;;;;4974473;28;87067;-49
2024/03/18 07:43:44;;;;;;;;;;;8.60;85.00;;;;;;4973789;28;87618;-49
2024/03/18 07:46:09;;;;;;;;;;;8.60;84.90;;;;;;4977981;28;89717;-49
2024/03/18 07:48:35;;;;;;;;;;;8.60;84.90;;;;;;4983436;28;87902;-49
2024/03/18 07:51:02;;;;;;;;;;;8.60;85.50;;;;;;4974509;28;87416;-50
2024/03/18 07:53:28;;;;;;;;;;;8.60;84.90;;;;;;4979497;28;87674;-50
2024/03/18 07:56:00;;;;;;;;;;;8.60;84.90;;;;;;4977887;28;87346;-49
2024/03/18 07:58:26;;;;;;;;;;;8.60;84.90;;;;;;4973367;28;86885;-52
2024/03/18 08:00:52;;;;;;;;;;;8.60;84.90;;;;;;4977420;28;87334;-49
2024/03/18 08:03:17;;;;;;;;;;;8.60;84.90;;;;;;4974042;28;88657;-47
2024/03/18 08:05:43;;;;;;;;;;;8.60;84.90;;;;;;4978085;28;87448;-53
2024/03/18 08:08:09;;;;;;;;;;;8.60;84.90;;;;;;4975034;28;87041;-49
2024/03/18 08:10:34;;;;;;;;;;;8.70;84.90;;;;;;4971622;28;87838;-49
2024/03/18 08:13:00;;;;;;;;;;;8.70;84.90;;;;;;4978210;28;87088;-51
2024/03/18 08:15:26;;;;;;;;;;;8.70;85.00;;;;;;4976596;28;86984;-50
2024/03/18 08:17:51;;;;;;;;;;;8.70;85.00;;;;;;4973530;28;87467;-50
2024/03/18 08:20:17;;;;;;;;;;;8.70;84.90;;;;;;4978511;28;86977;-50
2024/03/18 08:22:42;;;;;;;;;;;8.70;85.00;;;;;;4973497;28;87055;-49
2024/03/18 08:25:08;;;;;;;;;;;8.70;85.00;;;;;;4977998;28;87465;-50
2024/03/18 08:27:34;;;;;;;;;;;8.70;84.90;;;;;;4973409;28;86404;-48
2024/03/18 08:29:59;;;;;;;;;;;8.70;84.90;;;;;;4977080;28;87465;-52
2024/03/18 08:32:25;;;;;;;;;;;8.70;84.90;;;;;;4977300;28;87339;-50
2024/03/18 08:34:51;;;;;;;;;;;8.70;85.00;;;;;;4980304;28;87947;-50
2024/03/18 08:37:20;;;;;;;;;;;8.60;84.90;;;;;;4971010;28;87232;-51
2024/03/18 08:39:47;;;;;;;;;;;8.70;85.20;;;;;;4973623;28;87916;-50
2024/03/18 08:42:13;;;;;;;;;;;8.60;85.10;;;;;;4976269;28;87675;-50
2024/03/18 08:44:38;;;;;;;;;;;8.60;85.20;;;;;;4973497;28;87432;-52
2024/03/18 08:47:04;;;;;;;;;;;8.60;85.20;;;;;;4975599;28;87041;-53
2024/03/18 08:49:30;;;;;;;;;;;8.70;85.30;;;;;;4975758;28;87638;-49
2024/03/18 08:51:56;;;;;;;;;;;8.60;85.20;;;;;;4981201;28;87261;-49
2024/03/18 08:54:22;;;;;;;;;;;8.70;85.30;;;;;;4975899;28;87004;-50
2024/03/18 08:56:48;;;;;;;;;;;8.60;85.30;;;;;;4976141;28;87729;-48
2024/03/18 08:59:13;;;;;;;;;;;8.60;85.30;;;;;;4976367;28;88037;-50
2024/03/18 09:01:39;;;;;;;;;;;8.60;85.30;;;;;;4976534;28;87636;-51
2024/03/18 09:04:08;;;;;;;;;;;8.60;85.30;;;;;;4977588;28;88574;-50
2024/03/18 09:06:33;;;;;;;;;;;8.70;85.40;;;;;;4979877;28;86997;-51
2024/03/18 09:08:59;;;;;;;;;;;8.70;85.50;;;;;;4974087;28;86917;-50
2024/03/18 09:11:25;;;;;;;;;;;8.70;85.40;;;;;;4970499;28;87423;-52
2024/03/18 09:13:50;;;;;;;;;;;8.70;85.40;;;;;;4978291;28;87271;-50
2024/03/18 09:16:16;;;;;;;;;;;8.80;85.40;;;;;;4976836;28;86378;-51
2024/03/18 09:18:42;;;;;;;;;;;8.80;85.50;;;;;;4975707;28;87044;-50
2024/03/18 09:21:07;;;;;;;;;;;8.80;85.50;;;;;;4979395;28;87727;-51
2024/03/18 09:23:33;;;;;;;;;;;8.80;85.40;;;;;;4975201;28;89057;-50
2024/03/18 09:25:58;;;;;;;;;;;8.80;85.60;;;;;;4971294;28;87065;-52
2024/03/18 09:28:24;;;;;;;;;;;8.80;85.50;;;;;;4972405;28;87064;-50
2024/03/18 09:30:59;;;;;;;;;;;8.80;85.60;;;;;;4974717;28;87599;-51
2024/03/18 09:33:26;;;;;;;;;;;8.80;85.50;;;;;;4970289;28;86977;-51
2024/03/18 09:35:51;;;;;;;;;;;8.80;85.60;;;;;;4978694;28;87005;-50
2024/03/18 09:38:17;;;;;;;;;;;8.90;85.70;;;;;;4982177;28;87093;-50
2024/03/18 09:40:42;;;;;;;;;;;8.90;85.70;;;;;;4974834;28;87232;-49
2024/03/18 09:43:10;;;;;;;;;;;8.90;85.70;;;;;;4977499;28;87096;-50
2024/03/18 09:45:36;;;;;;;;;;;8.90;85.70;;;;;;4973096;28;86956;-50
2024/03/18 09:48:03;;;;;;;;;;;8.90;85.70;;;;;;4971309;28;87931;-52
2024/03/18 09:50:28;;;;;;;;;;;8.90;85.70;;;;;;4975355;28;87692;-54
2024/03/18 09:52:54;;;;;;;;;;;8.90;85.70;;;;;;4973965;28;87480;-51
2024/03/18 09:55:21;;;;;;;;;;;8.90;85.70;;;;;;4976128;28;86855;-53
2024/03/18 09:57:48;;;;;;;;;;;9.00;85.70;;;;;;4977152;28;88778;-50
2024/03/18 10:00:13;;;;;;;;;;;9.00;85.60;;;;;;4978550;28;88459;-50
2024/03/18 10:02:39;;;;;;;;;;;9.00;85.60;;;;;;4972998;28;87573;-49
2024/03/18 10:05:09;;;;;;;;;;;9.00;85.60;;;;;;4972755;28;87180;-50
2024/03/18 10:07:35;;;;;;;;;;;9.00;85.70;;;;;;4973229;28;87246;-50
2024/03/18 10:10:02;;;;;;;;;;;9.00;85.80;;;;;;4974458;28;87735;-50
2024/03/18 10:12:27;;;;;;;;;;;9.00;85.80;;;;;;4974296;28;88849;-48
2024/03/18 10:14:53;;;;;;;;;;;9.00;85.90;;;;;;4973532;28;87534;-48
2024/03/18 10:17:19;;;;;;;;;;;9.00;85.80;;;;;;4979694;28;87604;-51
2024/03/18 10:19:44;;;;;;;;;;;9.10;85.90;;;;;;4977712;28;87046;-51
2024/03/18 10:22:11;;;;;;;;;;;9.00;85.90;;;;;;4975705;28;88854;-49
2024/03/18 10:24:38;;;;;;;;;;;9.10;85.90;;;;;;4971670;28;87473;-51
2024/03/18 10:27:04;;;;;;;;;;;9.10;85.80;;;;;;4971993;28;86981;-50
2024/03/18 10:29:30;;;;;;;;;;;9.10;85.80;;;;;;4975201;28;86811;-52
2024/03/18 10:31:56;;;;;;;;;;;9.10;85.90;;;;;;4972058;28;87037;-50
2024/03/18 10:34:22;;;;;;;;;;;9.20;86.00;;;;;;4976612;28;86971;-50
2024/03/18 10:36:53;;;;;;;;;;;9.20;85.90;;;;;;4975935;28;88809;-48
2024/03/18 10:39:32;;;;;;;;;;;9.20;86.10;;;;;;4978583;28;86968;-50
2024/03/18 10:42:01;;;;;;;;;;;9.20;86.00;;;;;;4972830;28;87430;-50
2024/03/18 10:44:30;;;;;;;;;;;9.20;86.10;;;;;;4978043;28;87097;-50
2024/03/18 10:46:55;;;;;;;;;;;9.20;86.10;;;;;;4975129;28;87073;-49
2024/03/18 10:49:21;;;;;;;;;;;9.30;86.10;;;;;;4973151;28;87715;-51
2024/03/18 10:51:48;;;;;;;;;;;9.30;86.00;;;;;;4979241;28;87362;-49
2024/03/18 10:54:15;;;;;;;;;;;9.30;86.00;;;;;;4973404;28;86162;-50
2024/03/18 10:56:44;;;;;;;;;;;9.30;86.00;;;;;;4977572;28;87682;-50
2024/03/18 10:59:15;;;;;;;;;;;9.30;86.20;;;;;;4975049;28;86963;-50
2024/03/18 11:01:41;;;;;;;;;;;9.30;86.00;;;;;;4975518;28;88226;-51
2024/03/18 11:04:25;;;;;;;;;;;9.40;86.10;;;;;;4973263;28;87112;-52
2024/03/18 11:06:52;;;;;;;;;;;9.40;85.90;;;;;;4970904;28;87003;-50
2024/03/18 11:09:18;;;;;;;;;;;9.40;85.80;;;;;;4970699;28;87504;-50
2024/03/18 11:11:44;;;;;;;;;;;9.40;85.80;;;;;;4973551;28;87371;-50
2024/03/18 11:14:12;;;;;;;;;;;9.50;85.90;;;;;;4970741;28;86987;-50
2024/03/18 11:16:42;;;;;;;;;;;9.50;85.80;;;;;;4972743;28;87463;-51
2024/03/18 11:19:07;;;;;;;;;;;9.50;85.80;;;;;;4976627;28;86291;-51
2024/03/18 11:21:33;;;;;;;;;;;9.50;85.80;;;;;;4973016;28;87222;-52
2024/03/18 11:24:03;;;;;;;;;;;9.50;85.90;;;;;;4976029;28;87425;-50
2024/03/18 11:26:29;;;;;;;;;;;9.50;85.90;;;;;;4975239;28;88090;-50
2024/03/18 11:29:08;;;;;;;;;;;9.60;85.90;;;;;;4971986;28;88989;-51
2024/03/18 11:31:35;;;;;;;;;;;9.60;85.90;;;;;;4975493;28;87251;-51
2024/03/18 11:34:04;;;;;;;;;;;9.60;85.90;;;;;;4971991;28;86909;-51
2024/03/18 11:36:35;;;;;;;;;;;9.60;86.00;;;;;;4971832;28;88450;-50
2024/03/18 11:39:01;;;;;;;;;;;9.60;85.90;;;;;;4973614;28;87003;-52
2024/03/18 11:41:27;;;;;;;;;;;9.70;86.00;;;;;;4973185;28;86902;-52
2024/03/18 11:43:52;;;;;;;;;;;9.70;85.90;;;;;;4972745;28;86954;-51
2024/03/18 11:46:18;;;;;;;;;;;9.70;85.90;;;;;;4980155;28;87060;-50
2024/03/18 11:48:43;;;;;;;;;;;9.80;85.90;;;;;;4975930;28;87377;-51
2024/03/18 11:51:10;;;;;;;;;;;9.80;85.80;;;;;;4973868;28;88808;-52
2024/03/18 11:53:36;;;;;;;;;;;9.80;85.80;;;;;;4975241;28;87919;-54
2024/03/18 11:56:01;;;;;;;;;;;9.80;85.70;;;;;;4974663;28;88785;-51
2024/03/18 11:58:27;;;;;;;;;;;9.80;86.00;;;;;;4981205;28;86980;-51
2024/03/18 12:00:53;;;;;;;;;;;9.80;85.70;;;;;;4975445;28;88169;-49
2024/03/18 12:03:21;;;;;;;;;;;9.90;86.30;;;;;;4976731;28;87921;-50
2024/03/18 12:05:47;;;;;;;;;;;9.90;85.70;;;;;;4974320;28;87057;-50
2024/03/18 12:08:17;;;;;;;;;;;9.90;85.40;;;;;;4982125;28;86586;-51
2024/03/18 12:10:44;;;;;;;;;;;9.90;85.50;;;;;;4973864;28;87920;-50
2024/03/18 12:13:11;;;;;;;;;;;9.90;85.40;;;;;;4978953;28;87814;-54
2024/03/18 12:15:36;;;;;;;;;;;9.90;85.50;;;;;;4973746;28;88443;-50
2024/03/18 12:18:06;;;;;;;;;;;9.90;85.60;;;;;;4974399;28;86977;-50
2024/03/18 12:20:31;;;;;;;;;;;10.00;85.80;;;;;;4977526;28;87762;-52
2024/03/18 12:22:58;;;;;;;;;;;10.00;85.50;;;;;;4972386;28;87747;-49
2024/03/18 12:28:32;;;;;;;;;;;10.00;85.60;;;;;;4979349;28;88027;-51
2024/03/18 12:31:01;;;;;;;;;;;10.00;85.80;;;;;;4976151;28;87271;-51
2024/03/18 12:33:30;;;;;;;;;;;10.10;85.50;;;;;;4974250;28;86873;-50
2024/03/18 12:35:55;;;;;;;;;;;10.10;85.90;;;;;;4980019;28;88641;-51
2024/03/18 12:38:21;;;;;;;;;;;10.10;85.30;;;;;;4975279;28;87011;-51
2024/03/18 12:40:48;;;;;;;;;;;10.10;85.60;;;;;;4976914;28;87876;-50
2024/03/18 12:43:14;;;;;;;;;;;10.10;85.50;;;;;;4974377;28;88580;-50
2024/03/18 12:45:39;;;;;;;;;;;10.10;85.30;;;;;;4970919;28;87985;-52
2024/03/18 12:48:07;;;;;;;;;;;10.20;85.40;;;;;;4982207;28;86919;-49
2024/03/18 12:50:33;;;;;;;;;;;10.20;85.20;;;;;;4977321;28;87955;-50
2024/03/18 12:53:01;;;;;;;;;;;10.20;85.50;;;;;;4973119;28;86837;-50
2024/03/18 12:55:28;;;;;;;;;;;10.20;85.40;;;;;;4978160;28;88805;-50
2024/03/18 12:57:53;;;;;;;;;;;10.30;85.30;;;;;;4972155;28;86384;-49
2024/03/18 13:00:20;;;;;;;;;;;10.20;85.30;;;;;;4978424;28;87473;-49
2024/03/18 13:02:46;;;;;;;;;;;10.30;85.30;;;;;;4977127;28;87806;-52
2024/03/18 13:05:12;;;;;;;;;;;10.30;85.30;;;;;;4973184;28;87952;-51
2024/03/18 13:07:39;;;;;;;;;;;10.30;85.30;;;;;;4975428;28;87690;-51
2024/03/18 13:10:06;;;;;;;;;;;10.30;85.30;;;;;;4971661;28;88593;-50
2024/03/18 13:12:34;;;;;;;;;;;10.40;85.20;;;;;;4977700;28;87027;-50
2024/03/18 13:15:01;;;;;;;;;;;10.40;85.20;;;;;;4976340;28;87725;-52
2024/03/18 13:17:30;;;;;;;;;;;10.40;85.10;;;;;;4976437;28;87000;-50
2024/03/18 13:19:56;;;;;;;;;;;10.40;84.90;;;;;;4971630;28;86852;-52
2024/03/18 13:22:22;;;;;;;;;;;10.50;84.90;;;;;;4973932;28;86677;-49
2024/03/18 13:24:48;;;;;;;;;;;10.50;85.10;;;;;;4976960;28;89489;-51
2024/03/18 13:27:14;;;;;;;;;;;10.50;85.10;;;;;;4973496;28;87029;-50
2024/03/18 13:29:40;;;;;;;;;;;10.50;85.20;;;;;;4969214;28;89654;-50
2024/03/18 13:32:07;;;;;;;;;;;10.50;84.80;;;;;;4971280;28;86984;-50
2024/03/18 13:34:33;;;;;;;;;;;10.50;84.70;;;;;;4979045;28;87904;-50
2024/03/18 13:36:59;;;;;;;;;;;10.60;84.30;;;;;;4978300;28;87060;-50
2024/03/18 13:39:28;;;;;;;;;;;10.60;84.10;;;;;;4973307;28;87099;-51
2024/03/18 13:42:00;;;;;;;;;;;10.60;84.20;;;;;;4972593;28;88822;-51
2024/03/18 13:44:26;;;;;;;;;;;10.60;84.30;;;;;;4970540;28;86990;-50
2024/03/18 13:46:52;;;;;;;;;;;10.60;84.60;;;;;;4974115;28;87071;-50
2024/03/18 13:49:17;;;;;;;;;;;10.60;84.50;;;;;;4974129;28;86932;-50
2024/03/18 13:51:43;;;;;;;;;;;10.70;84.40;;;;;;4973432;28;87882;-51
2024/03/18 13:54:09;;;;;;;;;;;10.70;84.50;;;;;;4978180;28;88232;-51
2024/03/18 13:56:35;;;;;;;;;;;10.70;84.40;;;;;;4980176;28;88651;-50
2024/03/18 13:59:00;;;;;;;;;;;10.80;84.50;;;;;;4976723;28;87040;-50
2024/03/18 14:01:26;;;;;;;;;;;10.80;84.40;;;;;;4973868;28;88043;-49
2024/03/18 14:03:51;;;;;;;;;;;10.80;84.50;;;;;;4974930;28;86976;-50
2024/03/18 14:06:17;;;;;;;;;;;10.80;84.40;;;;;;4975624;28;87968;-50
2024/03/18 14:08:43;;;;;;;;;;;10.90;84.40;;;;;;4972202;28;88625;-51
2024/03/18 14:11:13;;;;;;;;;;;10.90;84.40;;;;;;4970794;28;86431;-51
2024/03/18 14:13:39;;;;;;;;;;;10.90;84.40;;;;;;4972960;28;88157;-50
2024/03/18 14:16:05;;;;;;;;;;;10.90;84.30;;;;;;4972635;28;88557;-51
2024/03/18 14:18:35;;;;;;;;;;;11.00;84.20;;;;;;4974048;28;87873;-51
2024/03/18 14:21:03;;;;;;;;;;;11.00;84.30;;;;;;4972266;28;87576;-50
2024/03/18 14:23:29;;;;;;;;;;;11.00;84.30;;;;;;4973126;28;87035;-50
2024/03/18 14:25:55;;;;;;;;;;;11.10;84.20;;;;;;4974976;28;86984;-51